createdAt,value
2018-07-05T00:00:35.563Z,19.10
2018-07-05T00:03:15.197Z,19.10
2018-07-05T00:05:54.742Z,19.00
2018-07-05T00:11:08.263Z,18.90
2018-07-05T00:13:47.910Z,18.90
2018-07-05T00:16:27.596Z,18.80
2018-07-05T00:19:07.146Z,18.80
2018-07-05T00:21:46.758Z,18.90
2018-07-05T00:24:26.299Z,18.90
2018-07-05T00:27:06.479Z,18.80
2018-07-05T00:29:46.170Z,18.80
2018-07-05T00:32:25.762Z,18.70
2018-07-05T00:35:05.478Z,18.70
2018-07-05T00:37:45.247Z,18.60
2018-07-05T00:40:24.831Z,18.60
2018-07-05T00:43:04.568Z,18.60
2018-07-05T00:45:44.159Z,18.70
2018-07-05T00:48:23.769Z,18.60
2018-07-05T00:51:03.430Z,18.60
2018-07-05T00:53:43.224Z,18.50
2018-07-05T00:58:57.742Z,18.40
2018-07-05T01:01:37.360Z,18.40
2018-07-05T01:04:17.003Z,18.30
2018-07-05T01:06:56.621Z,18.30
2018-07-05T01:12:10.206Z,18.30
2018-07-05T01:14:50.377Z,18.30
2018-07-05T01:17:29.950Z,18.30
2018-07-05T01:20:09.861Z,18.30
2018-07-05T01:22:49.515Z,18.30
2018-07-05T01:25:29.120Z,18.30
2018-07-05T01:28:08.721Z,18.20
2018-07-05T01:30:48.294Z,18.20
2018-07-05T01:33:27.905Z,18.20
2018-07-05T01:36:07.486Z,18.20
2018-07-05T01:38:47.213Z,18.10
2018-07-05T01:41:26.713Z,18.10
2018-07-05T01:44:06.265Z,18.10
2018-07-05T01:46:45.854Z,18.10
2018-07-05T01:51:59.712Z,18.10
2018-07-05T01:57:13.116Z,18.20
2018-07-05T01:59:52.691Z,18.10
2018-07-05T02:02:32.358Z,18.10
2018-07-05T02:05:12.007Z,18.10
2018-07-05T02:10:25.397Z,18.10
2018-07-05T02:13:05.006Z,18.10
2018-07-05T02:15:44.602Z,18.00
2018-07-05T02:18:24.355Z,17.90
2018-07-05T02:21:04.113Z,17.90
2018-07-05T02:23:43.816Z,18.00
2018-07-05T02:26:23.554Z,18.00
2018-07-05T02:29:03.294Z,17.90
2018-07-05T02:31:42.913Z,17.90
2018-07-05T02:34:22.730Z,17.90
2018-07-05T02:37:02.337Z,17.90
2018-07-05T02:39:50.234Z,17.90
2018-07-05T02:45:03.499Z,17.90
2018-07-05T02:47:43.230Z,17.80
2018-07-05T02:52:56.981Z,17.80
2018-07-05T02:58:10.410Z,17.80
2018-07-05T03:00:50.007Z,17.80
2018-07-05T03:03:29.577Z,17.90
2018-07-05T03:06:09.327Z,17.80
2018-07-05T03:08:48.945Z,17.80
2018-07-05T03:11:28.630Z,17.80
2018-07-05T03:14:08.467Z,17.90
2018-07-05T03:16:48.044Z,17.90
2018-07-05T03:19:27.801Z,18.00
2018-07-05T03:24:42.054Z,18.00
2018-07-05T03:27:21.608Z,18.10
2018-07-05T03:32:35.221Z,18.20
2018-07-05T03:35:14.838Z,18.30
2018-07-05T03:37:54.474Z,18.40
2018-07-05T03:40:34.261Z,18.50
2018-07-05T03:43:13.892Z,18.70
2018-07-05T03:45:53.542Z,18.80
2018-07-05T03:48:33.164Z,18.90
2018-07-05T03:51:12.926Z,19.20
2018-07-05T03:53:52.575Z,19.40
2018-07-05T03:56:32.305Z,19.60
2018-07-05T03:59:15.595Z,19.70
2018-07-05T04:01:55.233Z,19.80
2018-07-05T04:07:08.670Z,19.70
2018-07-05T04:09:48.486Z,19.60
2018-07-05T04:12:28.101Z,19.10
2018-07-05T04:15:07.677Z,18.90
2018-07-05T04:17:47.467Z,18.80
2018-07-05T04:23:00.854Z,18.70
2018-07-05T04:25:40.650Z,18.60
2018-07-05T04:28:20.271Z,18.50
2018-07-05T04:30:59.867Z,18.50
2018-07-05T04:33:39.579Z,18.50
2018-07-05T04:36:19.129Z,18.40
2018-07-05T04:38:58.744Z,18.40
2018-07-05T04:41:38.426Z,18.40
2018-07-05T04:44:18.178Z,18.50
2018-07-05T04:46:57.767Z,18.50
2018-07-05T04:49:37.466Z,18.40
2018-07-05T04:52:17.146Z,18.40
2018-07-05T04:54:56.685Z,18.50
2018-07-05T04:57:36.454Z,18.40
2018-07-05T05:00:16.018Z,18.50
2018-07-05T05:02:55.591Z,18.40
2018-07-05T05:05:35.170Z,18.50
2018-07-05T05:08:14.840Z,18.50
2018-07-05T05:10:54.482Z,18.60
2018-07-05T05:13:34.126Z,18.60
2018-07-05T05:16:13.906Z,18.60
2018-07-05T05:21:27.577Z,18.70
2018-07-05T05:24:07.335Z,18.80
2018-07-05T05:26:53.060Z,18.80
2018-07-05T05:29:33.062Z,18.90
2018-07-05T05:32:12.891Z,19.10
2018-07-05T05:34:52.615Z,19.00
2018-07-05T05:37:32.939Z,19.10
2018-07-05T05:40:12.653Z,19.10
2018-07-05T05:42:52.338Z,19.20
2018-07-05T05:45:32.218Z,19.10
2018-07-05T05:48:12.091Z,19.10
2018-07-05T05:50:51.822Z,19.30
2018-07-05T05:53:31.709Z,19.40
2018-07-05T05:56:12.288Z,19.50
2018-07-05T05:58:52.330Z,19.60
2018-07-05T06:01:32.037Z,19.90
2018-07-05T06:04:11.724Z,20.00
2018-07-05T06:06:51.353Z,19.90
2018-07-05T06:09:31.127Z,20.00
2018-07-05T06:12:11.033Z,20.20
2018-07-05T06:14:51.048Z,20.20
2018-07-05T06:17:30.796Z,20.30
2018-07-05T06:20:10.979Z,20.40
2018-07-05T06:25:25.710Z,20.40
2018-07-05T06:28:05.371Z,20.40
2018-07-05T06:30:45.039Z,20.60
2018-07-05T06:33:24.989Z,20.60
2018-07-05T06:36:04.693Z,20.70
2018-07-05T06:38:44.502Z,21.00
2018-07-05T06:41:24.181Z,21.20
2018-07-05T06:44:04.110Z,21.60
2018-07-05T06:46:43.966Z,21.40
2018-07-05T06:49:23.891Z,21.20
2018-07-05T06:52:03.439Z,21.10
2018-07-05T06:54:43.391Z,21.00
2018-07-05T06:57:23.372Z,20.80
2018-07-05T07:00:03.232Z,20.80
2018-07-05T07:02:43.050Z,20.70
2018-07-05T07:05:23.476Z,20.50
2018-07-05T07:08:03.538Z,20.60
2018-07-05T07:10:43.252Z,20.70
2018-07-05T07:13:23.100Z,20.70
2018-07-05T07:16:02.874Z,20.80
2018-07-05T07:18:42.599Z,20.90
2018-07-05T07:21:22.434Z,20.90
2018-07-05T07:24:02.054Z,20.70
2018-07-05T07:26:41.762Z,20.70
2018-07-05T07:31:55.595Z,21.00
2018-07-05T07:34:35.203Z,20.90
2018-07-05T07:37:14.743Z,20.70
2018-07-05T07:39:54.619Z,20.70
2018-07-05T07:42:22.149Z,20.80
2018-07-05T07:44:49.808Z,20.80
2018-07-05T07:47:17.270Z,20.80
2018-07-05T07:49:44.684Z,20.80
2018-07-05T07:52:12.399Z,20.70
2018-07-05T07:54:39.850Z,20.70
2018-07-05T07:57:07.275Z,20.60
2018-07-05T07:59:34.690Z,20.50
2018-07-05T08:02:02.102Z,20.40
2018-07-05T08:06:57.185Z,20.50
2018-07-05T08:09:24.605Z,20.70
2018-07-05T08:11:52.032Z,20.60
2018-07-05T08:16:47.158Z,20.70
2018-07-05T08:21:42.227Z,20.70
2018-07-05T08:24:09.623Z,20.70
2018-07-05T08:26:37.047Z,20.70
2018-07-05T08:29:04.434Z,20.70
2018-07-05T08:31:31.832Z,20.80
2018-07-05T08:33:59.239Z,20.90
2018-07-05T08:36:26.692Z,21.10
2018-07-05T08:38:54.133Z,21.10
2018-07-05T08:41:21.579Z,21.20
2018-07-05T08:43:49.040Z,21.10
2018-07-05T08:46:16.498Z,21.10
2018-07-05T08:48:43.869Z,20.80
2018-07-05T08:51:11.329Z,20.70
2018-07-05T08:53:38.907Z,20.50
2018-07-05T08:56:06.319Z,20.50
2018-07-05T08:58:33.783Z,20.60
2018-07-05T09:01:01.162Z,20.70
2018-07-05T09:03:28.844Z,21.00
2018-07-05T09:05:56.228Z,21.30
2018-07-05T09:08:23.635Z,21.30
2018-07-05T09:10:51.087Z,21.50
2018-07-05T09:13:18.516Z,21.80
2018-07-05T09:15:45.894Z,22.00
2018-07-05T09:18:13.326Z,22.00
2018-07-05T09:20:40.775Z,22.00
2018-07-05T09:23:08.230Z,22.10
2018-07-05T09:25:35.701Z,22.10
2018-07-05T09:28:03.551Z,22.20
2018-07-05T09:30:31.064Z,22.40
2018-07-05T09:32:58.478Z,22.40
2018-07-05T09:35:25.924Z,22.40
2018-07-05T09:37:53.324Z,22.30
2018-07-05T09:40:20.794Z,22.30
2018-07-05T09:42:48.947Z,22.30
2018-07-05T09:45:16.367Z,22.30
2018-07-05T09:50:11.520Z,22.40
2018-07-05T09:52:39.139Z,22.70
2018-07-05T09:55:06.563Z,22.60
2018-07-05T09:57:33.959Z,22.60
2018-07-05T10:00:01.479Z,22.70
2018-07-05T10:02:28.871Z,22.50
2018-07-05T10:04:56.367Z,22.50
2018-07-05T10:07:23.778Z,22.50
2018-07-05T10:09:51.357Z,22.60
2018-07-05T10:12:18.858Z,22.40
2018-07-05T10:14:46.446Z,22.30
2018-07-05T10:17:13.872Z,22.00
2018-07-05T10:19:41.331Z,21.90
2018-07-05T10:22:08.772Z,21.80
2018-07-05T10:24:36.208Z,21.60
2018-07-05T10:29:44.324Z,21.10
2018-07-05T10:34:45.767Z,20.50
2018-07-05T10:37:17.352Z,20.40
2018-07-05T10:40:01.065Z,20.20
2018-07-05T10:42:43.347Z,20.10
2018-07-05T10:45:23.127Z,20.00
2018-07-05T10:48:02.900Z,19.90
2018-07-05T10:53:17.276Z,19.80
2018-07-05T10:55:57.020Z,19.90
2018-07-05T10:58:36.916Z,19.90
2018-07-05T11:01:16.800Z,19.70
2018-07-05T11:03:56.548Z,19.70
2018-07-05T11:06:36.409Z,19.60
2018-07-05T11:11:50.554Z,19.50
2018-07-05T11:14:30.361Z,19.50
2018-07-05T11:17:10.315Z,19.60
2018-07-05T11:19:50.155Z,19.70
2018-07-05T11:22:30.188Z,19.90
2018-07-05T11:25:10.675Z,20.00
2018-07-05T11:27:50.991Z,20.10
2018-07-05T11:30:31.320Z,20.10
2018-07-05T11:33:11.338Z,20.30
2018-07-05T11:35:51.903Z,20.30
2018-07-05T11:38:31.827Z,20.40
2018-07-05T11:41:11.411Z,20.40
2018-07-05T11:43:51.215Z,20.60
2018-07-05T11:46:31.239Z,20.60
2018-07-05T11:49:11.024Z,20.70
2018-07-05T11:51:50.913Z,20.90
2018-07-05T11:54:30.598Z,20.90
2018-07-05T11:57:10.794Z,21.00
2018-07-05T11:59:51.681Z,20.90
2018-07-05T12:02:31.316Z,20.80
2018-07-05T12:05:11.065Z,20.80
2018-07-05T12:07:50.659Z,20.80
2018-07-05T12:10:30.350Z,20.70
2018-07-05T12:13:10.174Z,20.80
2018-07-05T12:15:50.351Z,20.70
2018-07-05T12:18:29.950Z,20.90
2018-07-05T12:21:09.603Z,20.70
2018-07-05T12:23:49.099Z,20.70
2018-07-05T12:26:28.793Z,20.40
2018-07-05T12:29:09.266Z,20.60
2018-07-05T12:31:49.224Z,20.60
2018-07-05T12:37:02.586Z,20.50
2018-07-05T12:39:42.318Z,20.60
2018-07-05T12:42:22.020Z,20.40
2018-07-05T12:45:01.706Z,20.40
2018-07-05T12:47:41.346Z,20.40
2018-07-05T12:52:54.554Z,20.20
2018-07-05T12:55:34.774Z,20.10
2018-07-05T12:58:14.590Z,20.10
2018-07-05T13:00:55.228Z,20.20
2018-07-05T13:03:35.239Z,20.20
2018-07-05T13:06:14.793Z,20.30
2018-07-05T13:08:55.646Z,20.20
2018-07-05T13:11:35.344Z,20.10
2018-07-05T13:14:14.855Z,20.10
2018-07-05T13:16:54.531Z,20.00
2018-07-05T13:19:34.271Z,20.10
2018-07-05T13:22:14.078Z,20.10
2018-07-05T13:24:53.741Z,20.30
2018-07-05T13:27:33.434Z,20.20
2018-07-05T13:30:13.182Z,20.10
2018-07-05T13:32:53.000Z,20.10
2018-07-05T13:35:32.864Z,20.00
2018-07-05T13:38:12.484Z,19.90
2018-07-05T13:40:52.142Z,19.90
2018-07-05T13:43:31.844Z,20.00
2018-07-05T13:46:11.694Z,19.90
2018-07-05T13:48:51.427Z,19.80
2018-07-05T13:51:31.372Z,19.70
2018-07-05T13:54:11.118Z,19.70
2018-07-05T14:01:58.250Z,19.10
2018-07-05T14:04:38.940Z,18.80
2018-07-05T14:09:52.614Z,18.50
2018-07-05T14:12:32.538Z,18.50
2018-07-05T14:15:12.175Z,18.40
2018-07-05T14:17:51.821Z,18.50
2018-07-05T14:20:31.653Z,18.60
2018-07-05T14:23:11.249Z,18.60
2018-07-05T14:25:50.973Z,18.50
2018-07-05T14:28:30.735Z,18.80
2018-07-05T14:33:44.142Z,18.60
2018-07-05T14:36:23.732Z,18.30
2018-07-05T14:39:04.444Z,18.40
2018-07-05T14:41:44.197Z,18.30
2018-07-05T14:44:25.013Z,18.40
2018-07-05T14:47:04.894Z,18.50
2018-07-05T14:49:45.331Z,18.50
2018-07-05T14:52:24.983Z,18.50
2018-07-05T14:55:04.887Z,18.60
2018-07-05T14:57:44.862Z,18.80
2018-07-05T15:00:24.795Z,18.60
2018-07-05T15:05:38.276Z,18.60
2018-07-05T15:08:18.004Z,18.80
2018-07-05T15:10:57.841Z,18.80
2018-07-05T15:13:37.410Z,18.80
2018-07-05T15:16:16.962Z,18.80
2018-07-05T15:18:56.769Z,18.50
2018-07-05T15:21:36.477Z,18.60
2018-07-05T15:24:16.342Z,18.60
2018-07-05T15:26:56.029Z,18.50
2018-07-05T15:29:35.835Z,18.60
2018-07-05T15:32:15.673Z,18.60
2018-07-05T15:34:55.438Z,18.70
2018-07-05T15:37:35.102Z,18.80
2018-07-05T15:40:14.736Z,18.70
2018-07-05T15:42:54.477Z,18.90
2018-07-05T15:45:34.572Z,18.90
2018-07-05T15:48:14.650Z,18.90
2018-07-05T15:50:54.314Z,18.90
2018-07-05T15:53:33.773Z,18.90
2018-07-05T15:56:14.371Z,18.90
2018-07-05T15:58:53.986Z,19.00
2018-07-05T16:01:33.766Z,18.90
2018-07-05T16:04:13.365Z,18.80
2018-07-05T16:06:52.982Z,18.80
2018-07-05T16:09:32.787Z,18.90
2018-07-05T16:12:13.645Z,18.80
2018-07-05T16:14:53.307Z,18.80
2018-07-05T16:17:32.874Z,18.80
2018-07-05T16:20:13.019Z,18.90
2018-07-05T16:22:52.641Z,18.70
2018-07-05T16:28:06.487Z,18.70
2018-07-05T16:30:46.418Z,18.70
2018-07-05T16:33:26.392Z,18.60
2018-07-05T16:36:06.302Z,18.60
2018-07-05T16:38:46.300Z,18.60
2018-07-05T16:44:02.142Z,18.60
2018-07-05T16:46:42.146Z,18.70
2018-07-05T16:49:22.089Z,18.80
2018-07-05T16:52:01.980Z,18.80
2018-07-05T16:54:41.839Z,18.90
2018-07-05T16:57:21.410Z,18.90
2018-07-05T17:00:01.139Z,18.80
2018-07-05T17:02:41.045Z,18.70
2018-07-05T17:05:21.411Z,18.70
2018-07-05T17:08:02.155Z,18.80
2018-07-05T17:13:16.249Z,18.80
2018-07-05T17:15:56.301Z,18.90
2018-07-05T17:18:36.846Z,18.80
2018-07-05T17:21:16.977Z,18.80
2018-07-05T17:23:56.956Z,18.70
2018-07-05T17:26:37.661Z,18.80
2018-07-05T17:29:17.396Z,18.70
2018-07-05T17:31:57.497Z,18.60
2018-07-05T17:34:37.340Z,18.60
2018-07-05T17:37:17.228Z,18.60
2018-07-05T17:39:57.060Z,18.50
2018-07-05T17:42:36.918Z,18.50
2018-07-05T17:45:17.060Z,18.50
2018-07-05T17:47:57.116Z,18.40
2018-07-05T17:50:37.072Z,18.40
2018-07-05T17:53:17.855Z,18.40
2018-07-05T17:55:57.803Z,18.30
2018-07-05T17:58:37.773Z,18.40
2018-07-05T18:01:17.707Z,18.50
2018-07-05T18:03:57.524Z,18.50
2018-07-05T18:06:37.335Z,18.50
2018-07-05T18:09:20.760Z,18.30
2018-07-05T18:12:00.566Z,18.30
2018-07-05T18:14:40.359Z,18.30
2018-07-05T18:17:20.549Z,18.30
2018-07-05T18:20:00.436Z,18.30
2018-07-05T18:27:49.027Z,18.20
2018-07-05T18:30:28.718Z,18.10
2018-07-05T18:33:08.612Z,18.00
2018-07-05T18:35:48.674Z,18.00
2018-07-05T18:41:03.220Z,17.90
2018-07-05T18:43:42.988Z,17.90
2018-07-05T18:46:23.300Z,17.90
2018-07-05T18:49:03.056Z,17.90
2018-07-05T18:51:43.094Z,17.90
2018-07-05T18:54:23.009Z,17.80
2018-07-05T18:59:36.605Z,17.80
2018-07-05T19:02:16.438Z,17.80
2018-07-05T19:04:56.130Z,17.70
2018-07-05T19:07:35.811Z,17.70
2018-07-05T19:10:15.552Z,17.70
2018-07-05T19:12:55.198Z,17.70
2018-07-05T19:15:34.772Z,17.60
2018-07-05T19:18:14.396Z,17.50
2018-07-05T19:20:54.014Z,17.60
2018-07-05T19:23:33.906Z,17.60
2018-07-05T19:26:13.686Z,17.60
2018-07-05T19:28:53.525Z,17.60
2018-07-05T19:31:33.281Z,17.60
2018-07-05T19:34:13.191Z,17.60
2018-07-05T19:39:26.565Z,17.60
2018-07-05T19:42:06.268Z,17.50
2018-07-05T19:47:19.699Z,17.60
2018-07-05T19:49:59.546Z,17.60
2018-07-05T19:52:39.488Z,17.60
2018-07-05T19:55:19.238Z,17.60
2018-07-05T19:57:59.128Z,17.60
2018-07-05T20:00:39.201Z,17.70
2018-07-05T20:03:18.646Z,17.60
2018-07-05T20:05:58.590Z,17.60
2018-07-05T20:08:38.310Z,17.50
2018-07-05T20:11:18.093Z,17.50
2018-07-05T20:13:57.921Z,17.50
2018-07-05T20:16:37.609Z,17.50
2018-07-05T20:19:17.149Z,17.50
2018-07-05T20:21:56.887Z,17.50
2018-07-05T20:24:36.461Z,17.50
2018-07-05T20:27:16.129Z,17.40
2018-07-05T20:29:55.663Z,17.40
2018-07-05T20:37:42.742Z,17.50
2018-07-05T20:40:22.327Z,17.40
2018-07-05T20:43:02.145Z,17.40
2018-07-05T20:45:41.899Z,17.50
2018-07-05T20:48:21.439Z,17.40
2018-07-05T20:51:01.142Z,17.40
2018-07-05T20:53:41.166Z,17.30
2018-07-05T20:56:21.043Z,17.30
2018-07-05T20:59:04.637Z,17.40
2018-07-05T21:01:44.122Z,17.40
2018-07-05T21:04:23.900Z,17.30
2018-07-05T21:07:03.639Z,17.20
2018-07-05T21:09:43.374Z,17.30
2018-07-05T21:12:22.945Z,17.30
2018-07-05T21:15:02.506Z,17.30
2018-07-05T21:17:41.991Z,17.30
2018-07-05T21:20:21.649Z,17.30
2018-07-05T21:23:01.221Z,17.20
2018-07-05T21:25:40.961Z,17.30
2018-07-05T21:28:20.936Z,17.30
2018-07-05T21:31:00.707Z,17.30
2018-07-05T21:33:40.374Z,17.30
2018-07-05T21:36:19.992Z,17.40
2018-07-05T21:38:59.858Z,17.30
2018-07-05T21:41:39.514Z,17.30
2018-07-05T21:44:19.322Z,17.30
2018-07-05T21:46:58.923Z,17.10
2018-07-05T21:49:39.638Z,17.20
2018-07-05T21:52:19.564Z,17.20
2018-07-05T21:54:59.402Z,17.20
2018-07-05T21:57:39.077Z,17.20
2018-07-05T22:00:18.717Z,17.20
2018-07-05T22:02:58.494Z,17.20
2018-07-05T22:08:11.902Z,17.20
2018-07-05T22:10:51.518Z,17.20
2018-07-05T22:13:31.306Z,17.20
2018-07-05T22:16:11.360Z,17.20
2018-07-05T22:18:56.385Z,17.20
2018-07-05T22:21:40.173Z,17.10
2018-07-05T22:24:25.387Z,17.10
2018-07-05T22:27:05.042Z,17.10
2018-07-05T22:29:50.617Z,17.10
2018-07-05T22:32:30.341Z,17.10
2018-07-05T22:37:43.946Z,17.00
2018-07-05T22:40:23.658Z,17.10
2018-07-05T22:43:03.182Z,17.10
2018-07-05T22:45:42.889Z,17.10
2018-07-05T22:48:22.470Z,17.00
2018-07-05T22:53:36.018Z,17.10
2018-07-05T22:56:15.587Z,17.10
2018-07-05T22:58:58.986Z,17.10
2018-07-05T23:01:38.571Z,17.10
2018-07-05T23:04:18.185Z,17.10
2018-07-05T23:09:31.589Z,17.10
2018-07-05T23:12:11.278Z,17.10
2018-07-05T23:14:51.067Z,17.10
2018-07-05T23:17:30.826Z,17.10
2018-07-05T23:20:10.422Z,17.00
2018-07-05T23:22:50.332Z,17.00
2018-07-05T23:25:29.908Z,17.00
2018-07-05T23:28:09.614Z,17.00
2018-07-05T23:30:49.359Z,17.00
2018-07-05T23:33:29.098Z,16.90
2018-07-05T23:36:08.711Z,16.90
2018-07-05T23:38:48.263Z,16.90
2018-07-05T23:41:27.751Z,16.90
2018-07-05T23:44:07.534Z,16.90
2018-07-05T23:46:47.292Z,16.90
2018-07-05T23:49:27.036Z,16.90
2018-07-05T23:52:06.774Z,16.90
2018-07-05T23:54:46.457Z,16.90
2018-07-05T23:57:26.046Z,16.90
